Time;durP1;ratioP1;P1;durP2;ratioP2;P2;SDS_P1;SDS_P2;PMS_P1;PMS_P2;Temp;Humidity;BMP_temperature;BMP_pressure;BME280_temperature;BME280_humidity;BME280_pressure;Samples;Min_cycle;Max_cycle;Signal;HPM_P1;HPM_P2
2022/08/09 00:00:11;;;;;;;10.43;4.05;;;28.60;99.90;;;;;;5017906;22;20061;-47
2022/08/09 00:02:37;;;;;;;8.68;3.88;;;28.60;99.90;;;;;;5006549;28;20421;-48
2022/08/09 00:05:04;;;;;;;6.03;3.97;;;28.60;99.90;;;;;;5011967;28;20120;-48
2022/08/09 00:07:30;;;;;;;8.90;4.10;;;28.60;99.90;;;;;;5011994;28;20752;-48
2022/08/09 00:09:56;;;;;;;7.65;3.92;;;28.60;99.90;;;;;;5009099;28;20260;-48
2022/08/09 00:12:22;;;;;;;7.95;4.20;;;28.60;99.90;;;;;;5001095;28;20080;-47
2022/08/09 00:14:48;;;;;;;9.55;4.10;;;28.60;99.90;;;;;;5012061;28;20057;-47
2022/08/09 00:17:14;;;;;;;5.15;3.33;;;28.60;99.90;;;;;;5011576;28;20053;-48
2022/08/09 00:19:39;;;;;;;7.72;4.20;;;28.60;99.90;;;;;;5011825;28;20064;-49
2022/08/09 00:22:05;;;;;;;5.60;3.80;;;28.50;99.90;;;;;;5011787;28;20022;-49
2022/08/09 00:24:31;;;;;;;10.00;4.30;;;28.50;99.90;;;;;;5011542;28;20383;-50
2022/08/09 00:26:58;;;;;;;10.30;4.22;;;28.50;99.90;;;;;;4994069;28;20382;-49
2022/08/09 00:29:25;;;;;;;8.65;4.28;;;28.60;99.90;;;;;;5011575;28;20025;-49
2022/08/09 00:31:51;;;;;;;7.37;3.73;;;28.60;99.90;;;;;;5011677;28;20030;-49
2022/08/09 00:34:17;;;;;;;6.80;4.13;;;28.50;99.90;;;;;;5011688;28;20313;-49
2022/08/09 00:36:42;;;;;;;6.57;3.83;;;28.50;99.90;;;;;;4993914;28;20168;-49
2022/08/09 00:39:09;;;;;;;9.50;3.65;;;28.50;99.90;;;;;;5011451;28;20521;-49
2022/08/09 00:41:35;;;;;;;8.52;3.67;;;28.50;99.90;;;;;;5011592;28;20022;-49
2022/08/09 00:44:00;;;;;;;5.93;3.50;;;28.50;99.90;;;;;;5011516;28;20389;-49
2022/08/09 00:46:26;;;;;;;9.32;3.97;;;28.50;99.90;;;;;;5011338;28;20018;-49
2022/08/09 00:48:52;;;;;;;4.35;3.90;;;28.50;99.90;;;;;;5011307;28;20030;-49
2022/08/09 00:51:18;;;;;;;7.35;3.72;;;28.50;99.90;;;;;;5011638;28;20466;-49
2022/08/09 00:53:45;;;;;;;5.53;3.67;;;28.50;99.90;;;;;;5011217;28;20370;-49
2022/08/09 00:56:11;;;;;;;;;;;28.50;99.90;;;;;;5011609;28;20088;-49
2022/08/09 00:58:37;;;;;;;4.70;3.45;;;28.50;99.90;;;;;;5011340;28;20361;-49
2022/08/09 01:01:20;;;;;;;3.70;3.38;;;28.50;99.90;;;;;;5011488;28;20058;-49
2022/08/09 01:03:54;;;;;;;7.18;3.60;;;28.40;99.90;;;;;;5011191;28;20026;-49
2022/08/09 01:06:38;;;;;;;7.75;3.72;;;28.40;99.90;;;;;;5011376;28;20030;-49
2022/08/09 01:09:47;;;;;;;6.35;3.40;;;28.40;99.90;;;;;;5011178;28;20028;-48
2022/08/09 01:12:25;;;;;;;6.05;3.70;;;28.40;99.90;;;;;;4919808;29;20059;-49
2022/08/09 01:15:18;;;;;;;6.30;3.55;;;28.40;99.90;;;;;;5008629;28;20026;-48
2022/08/09 01:18:09;;;;;;;8.18;3.90;;;28.40;99.90;;;;;;5015004;28;20025;-49
2022/08/09 01:20:51;;;;;;;6.63;3.83;;;28.40;99.90;;;;;;5015046;28;20036;-49
2022/08/09 01:23:53;;;;;;;10.32;3.78;;;28.40;99.90;;;;;;5014816;28;20038;-49
2022/08/09 01:26:40;;;;;;;5.35;3.60;;;28.40;99.90;;;;;;5001101;28;20036;-49
2022/08/09 01:29:08;;;;;;;3.60;2.90;;;28.40;99.90;;;;;;5014868;28;20505;-49
2022/08/09 01:31:37;;;;;;;4.00;3.38;;;28.40;99.90;;;;;;5014662;28;20022;-49
2022/08/09 01:34:05;;;;;;;5.40;3.45;;;28.40;99.90;;;;;;5014787;28;20018;-49
2022/08/09 01:36:33;;;;;;;7.43;3.47;;;28.40;99.90;;;;;;4997186;28;20030;-49
2022/08/09 01:39:01;;;;;;;7.35;3.20;;;28.40;99.90;;;;;;5014682;28;20022;-49
2022/08/09 01:41:34;;;;;;;8.55;2.75;;;28.40;99.90;;;;;;5014792;28;20022;-49
2022/08/09 01:44:03;;;;;;;6.97;3.33;;;28.40;99.90;;;;;;4971575;28;20482;-48
2022/08/09 01:46:33;;;;;;;5.40;3.30;;;28.40;99.90;;;;;;5014583;28;20025;-48
2022/08/09 01:49:20;;;;;;;3.70;2.78;;;28.40;99.90;;;;;;5014661;28;20018;-48
2022/08/09 01:51:51;;;;;;;6.85;3.40;;;28.40;99.90;;;;;;5014440;28;20030;-48
2022/08/09 01:54:18;;;;;;;5.97;3.53;;;28.40;99.90;;;;;;4996691;28;20378;-48
2022/08/09 01:56:47;;;;;;;5.93;2.63;;;28.40;99.90;;;;;;5014468;28;20482;-48
2022/08/09 01:59:18;;;;;;;12.55;3.75;;;28.40;99.90;;;;;;5014484;28;20033;-48
2022/08/09 02:01:47;;;;;;;8.82;3.17;;;28.40;99.90;;;;;;5013980;28;20379;-48
2022/08/09 02:04:15;;;;;;;4.10;2.78;;;28.40;99.90;;;;;;5014158;28;20126;-49
2022/08/09 02:09:29;;;;;;;6.20;3.03;;;28.40;99.90;;;;;;5014370;28;20232;-48
2022/08/09 02:11:56;;;;;;;6.97;3.47;;;28.40;99.90;;;;;;5000341;28;20030;-49
2022/08/09 02:14:23;;;;;;;5.20;3.53;;;28.40;99.90;;;;;;5014379;28;20091;-48
2022/08/09 02:16:51;;;;;;;9.15;3.45;;;28.40;99.90;;;;;;5013706;28;20014;-49
2022/08/09 02:19:16;;;;;;;6.18;3.30;;;28.40;99.90;;;;;;4996549;28;20458;-48
2022/08/09 02:21:49;;;;;;;3.78;2.78;;;28.40;99.90;;;;;;5013989;28;20092;-48
2022/08/09 02:24:21;;;;;;;8.88;3.40;;;28.40;99.90;;;;;;5013107;28;20045;-49
2022/08/09 02:26:54;;;;;;;6.75;3.25;;;28.40;99.90;;;;;;5013985;28;20022;-48
2022/08/09 02:29:26;;;;;;;3.63;3.05;;;28.40;99.90;;;;;;5013752;28;20025;-48
2022/08/09 02:31:57;;;;;;;5.13;2.83;;;28.40;99.90;;;;;;4996303;28;20060;-48
2022/08/09 02:34:27;;;;;;;10.40;7.60;;;28.40;99.90;;;;;;5013731;28;20030;-49
2022/08/09 02:36:55;;;;;;;10.23;6.22;;;28.40;99.90;;;;;;5013810;28;20466;-48
2022/08/09 02:39:33;;;;;;;7.68;4.10;;;28.40;99.90;;;;;;5013552;28;20498;-49
2022/08/09 02:42:02;;;;;;;6.85;3.88;;;28.40;99.90;;;;;;5013610;28;20129;-49
2022/08/09 02:44:52;;;;;;;8.82;3.55;;;28.40;99.90;;;;;;5013749;28;20026;-48
2022/08/09 02:47:20;;;;;;;5.90;3.88;;;28.40;99.90;;;;;;5013289;28;20032;-48
2022/08/09 02:50:01;;;;;;;7.35;3.90;;;28.40;99.90;;;;;;5013498;28;20025;-49
2022/08/09 02:52:33;;;;;;;11.65;4.07;;;28.40;99.90;;;;;;5013543;28;20021;-48
2022/08/09 02:55:01;;;;;;;12.95;4.43;;;28.40;99.90;;;;;;5002802;28;20046;-49
2022/08/09 02:57:29;;;;;;;4.78;3.45;;;28.40;99.90;;;;;;5010561;28;20480;-49
2022/08/09 02:59:56;;;;;;;7.50;4.00;;;28.40;99.90;;;;;;4996787;28;20136;-49
2022/08/09 03:02:22;;;;;;;6.85;3.88;;;28.40;99.90;;;;;;5012931;28;20559;-49
2022/08/09 03:04:50;;;;;;;8.75;3.20;;;28.40;99.90;;;;;;5013122;28;20397;-48
2022/08/09 03:07:18;;;;;;;11.05;4.25;;;28.40;99.90;;;;;;5013199;28;20081;-48
2022/08/09 03:09:44;;;;;;;8.77;4.20;;;28.40;99.90;;;;;;5011759;28;20030;-48
2022/08/09 03:12:11;;;;;;;5.70;3.72;;;28.40;99.90;;;;;;5000683;28;20022;-48
2022/08/09 03:14:39;;;;;;;5.80;3.33;;;28.30;99.90;;;;;;5013057;28;20501;-49
2022/08/09 03:17:06;;;;;;;11.55;4.68;;;28.40;99.90;;;;;;5012815;28;20082;-48
2022/08/09 03:19:33;;;;;;;7.03;4.68;;;28.40;99.90;;;;;;5012896;28;20477;-48
2022/08/09 03:22:00;;;;;;;11.60;4.15;;;28.40;99.90;;;;;;5013044;28;20037;-48
2022/08/09 03:24:26;;;;;;;4.43;3.80;;;28.40;99.90;;;;;;5012858;28;20045;-48
2022/08/09 03:26:53;;;;;;;8.80;4.22;;;28.30;99.90;;;;;;5012740;28;20022;-48
2022/08/09 03:29:19;;;;;;;7.07;4.15;;;28.30;99.90;;;;;;5012712;28;20032;-47
2022/08/09 03:31:45;;;;;;;6.82;3.65;;;28.40;99.90;;;;;;5012467;28;20084;-48
2022/08/09 03:34:11;;;;;;;7.63;5.97;;;28.40;99.90;;;;;;4994941;28;20026;-48
2022/08/09 03:36:37;;;;;;;8.20;4.60;;;28.40;99.90;;;;;;5011713;28;20489;-48
2022/08/09 03:39:04;;;;;;;9.98;5.70;;;28.40;99.90;;;;;;5012435;28;20029;-48
2022/08/09 03:41:30;;;;;;;9.48;4.13;;;28.40;99.90;;;;;;5012535;28;20034;-47
2022/08/09 03:43:56;;;;;;;8.20;4.03;;;28.40;99.90;;;;;;5012521;28;20030;-48
2022/08/09 03:46:21;;;;;;;8.43;3.78;;;28.40;99.90;;;;;;5012274;28;20026;-48
2022/08/09 03:48:55;;;;;;;9.98;4.57;;;28.40;99.90;;;;;;5012202;28;20037;-48
2022/08/09 03:51:23;;;;;;;7.65;3.92;;;28.40;99.90;;;;;;5012250;28;20037;-48
2022/08/09 03:53:50;;;;;;;10.15;3.90;;;28.30;99.90;;;;;;5012382;28;20058;-48
2022/08/09 03:56:16;;;;;;;8.98;4.50;;;28.40;99.90;;;;;;5012169;28;20152;-48
2022/08/09 03:58:42;;;;;;;5.57;3.13;;;28.40;99.90;;;;;;4999913;28;20029;-49
2022/08/09 04:01:09;;;;;;;6.93;4.43;;;28.40;99.90;;;;;;5011616;28;20045;-49
2022/08/09 04:03:36;;;;;;;7.07;3.85;;;28.40;99.90;;;;;;5011893;28;20125;-49
2022/08/09 04:06:02;;;;;;;11.07;4.07;;;28.40;99.90;;;;;;4994657;28;20030;-49
2022/08/09 04:08:28;;;;;;;8.52;4.78;;;28.30;99.90;;;;;;5012052;28;20018;-49
2022/08/09 04:10:54;;;;;;;18.52;4.45;;;28.30;99.90;;;;;;5001212;28;20381;-48
2022/08/09 04:13:19;;;;;;;7.47;4.47;;;28.30;99.90;;;;;;4994247;28;20025;-49
2022/08/09 04:15:45;;;;;;;10.65;4.30;;;28.30;99.90;;;;;;5011704;28;20096;-48
2022/08/09 04:18:12;;;;;;;10.30;4.55;;;28.30;99.90;;;;;;5011837;28;20037;-49
2022/08/09 04:20:38;;;;;;;8.23;4.63;;;28.30;99.90;;;;;;5011732;28;20029;-48
2022/08/09 04:23:04;;;;;;;10.25;4.07;;;28.30;99.90;;;;;;5011582;28;20026;-48
2022/08/09 04:25:30;;;;;;;9.90;5.30;;;28.30;99.90;;;;;;5012053;28;20032;-48
2022/08/09 04:27:56;;;;;;;13.55;4.70;;;28.30;99.90;;;;;;5011633;28;20470;-49
2022/08/09 04:30:22;;;;;;;6.20;4.03;;;28.30;99.90;;;;;;5011636;28;20113;-48
2022/08/09 04:32:49;;;;;;;11.40;4.75;;;28.30;99.90;;;;;;5011422;28;20053;-48
2022/08/09 04:35:14;;;;;;;7.73;4.80;;;28.30;99.90;;;;;;5011806;28;20021;-48
2022/08/09 04:37:40;;;;;;;9.73;5.65;;;28.30;99.90;;;;;;5011625;28;20030;-48
2022/08/09 04:40:07;;;;;;;10.65;4.47;;;28.30;99.90;;;;;;5011291;28;20034;-48
2022/08/09 04:42:34;;;;;;;15.50;7.25;;;28.30;99.90;;;;;;5011635;28;20549;-48
2022/08/09 04:45:00;;;;;;;18.48;6.63;;;28.30;99.90;;;;;;5011543;28;20139;-48
2022/08/09 04:47:27;;;;;;;13.13;6.00;;;28.40;99.90;;;;;;5010947;28;20018;-48
2022/08/09 04:49:54;;;;;;;10.93;5.70;;;28.30;99.90;;;;;;5002162;28;20035;-48
2022/08/09 04:52:25;;;;;;;11.77;5.72;;;28.30;99.90;;;;;;5006876;28;20026;-48
2022/08/09 04:54:51;;;;;;;7.90;5.55;;;28.30;99.90;;;;;;5011081;28;20040;-48
2022/08/09 04:57:17;;;;;;;11.25;6.25;;;28.30;99.90;;;;;;5011294;28;20061;-48
2022/08/09 04:59:43;;;;;;;15.30;6.60;;;28.30;99.90;;;;;;5011034;28;20046;-48
2022/08/09 05:02:10;;;;;;;10.02;5.85;;;28.30;99.90;;;;;;5011100;28;20490;-48
2022/08/09 05:04:36;;;;;;;10.52;6.82;;;28.30;99.90;;;;;;5011416;28;20044;-48
2022/08/09 05:07:02;;;;;;;11.23;7.03;;;28.30;99.90;;;;;;5011382;28;20010;-48
2022/08/09 05:09:29;;;;;;;8.93;6.57;;;28.30;99.90;;;;;;5011002;28;20546;-48
2022/08/09 05:11:55;;;;;;;10.05;7.07;;;28.30;99.90;;;;;;4996129;28;20022;-48
2022/08/09 05:14:21;;;;;;;12.45;7.03;;;28.30;99.90;;;;;;5011263;28;20569;-48
2022/08/09 05:16:47;;;;;;;9.57;6.85;;;28.30;99.90;;;;;;5010988;28;20096;-48
2022/08/09 05:19:13;;;;;;;10.27;6.82;;;28.30;99.90;;;;;;4993696;28;20021;-47
2022/08/09 05:21:40;;;;;;;10.80;6.65;;;28.30;99.90;;;;;;5011123;28;20112;-48
2022/08/09 05:24:06;;;;;;;11.63;6.27;;;28.30;99.90;;;;;;5010899;28;20042;-48
2022/08/09 05:26:32;;;;;;;11.45;7.20;;;28.30;99.90;;;;;;5011270;28;20026;-48
2022/08/09 05:28:58;;;;;;;12.75;7.72;;;28.20;99.90;;;;;;5011229;28;20026;-49
2022/08/09 05:31:23;;;;;;;13.02;6.95;;;28.20;99.90;;;;;;5010753;28;20026;-48
2022/08/09 05:33:49;;;;;;;12.05;6.90;;;28.20;99.90;;;;;;5011040;28;20026;-48
2022/08/09 05:36:15;;;;;;;10.77;7.20;;;28.20;99.90;;;;;;5010875;28;20037;-48
2022/08/09 05:38:40;;;;;;;12.85;7.50;;;28.20;99.90;;;;;;5010804;28;20026;-48
2022/08/09 05:41:06;;;;;;;12.15;7.22;;;28.20;99.90;;;;;;5011120;28;20035;-48
2022/08/09 05:43:34;;;;;;;12.70;7.32;;;28.20;99.90;;;;;;5010601;28;20403;-49
2022/08/09 05:46:00;;;;;;;;;;;28.20;99.90;;;;;;5011268;28;20021;-48
2022/08/09 05:48:26;;;;;;;14.68;7.63;;;28.20;99.90;;;;;;5010998;28;19996;-48
2022/08/09 05:50:52;;;;;;;17.42;7.80;;;28.20;99.90;;;;;;5010632;28;20064;-48
2022/08/09 05:53:17;;;;;;;14.43;7.28;;;28.20;99.90;;;;;;5010681;28;20382;-48
2022/08/09 05:55:43;;;;;;;17.42;7.63;;;28.20;99.90;;;;;;5010615;28;20041;-48
2022/08/09 05:58:09;;;;;;;12.82;7.22;;;28.20;99.90;;;;;;5010541;28;20037;-48
2022/08/09 06:00:35;;;;;;;22.88;7.45;;;28.10;99.90;;;;;;5012569;28;20050;-48
2022/08/09 06:03:03;;;;;;;14.63;7.22;;;28.20;99.90;;;;;;5014117;28;20029;-49
2022/08/09 06:05:31;;;;;;;16.33;6.57;;;28.10;99.90;;;;;;5014218;28;20030;-49
2022/08/09 06:07:57;;;;;;;12.43;7.45;;;28.10;99.90;;;;;;5013963;28;20474;-49
2022/08/09 06:10:36;;;;;;;10.57;6.93;;;28.10;99.90;;;;;;5007788;28;20054;-49
2022/08/09 06:13:11;;;;;;;12.98;6.93;;;28.10;99.90;;;;;;5007017;28;20014;-49
2022/08/09 06:15:37;;;;;;;11.38;7.57;;;28.10;99.90;;;;;;5014071;28;20061;-49
2022/08/09 06:18:03;;;;;;;16.27;7.50;;;28.10;99.90;;;;;;5014155;28;20022;-48
2022/08/09 06:20:29;;;;;;;16.13;9.60;;;28.10;99.90;;;;;;5013883;28;20030;-49
2022/08/09 06:22:55;;;;;;;15.63;7.10;;;28.10;99.90;;;;;;5013672;28;20030;-49
2022/08/09 06:25:21;;;;;;;21.25;6.85;;;28.10;99.90;;;;;;5013874;28;20147;-49
2022/08/09 06:27:46;;;;;;;12.63;6.90;;;28.10;99.90;;;;;;5013872;28;20018;-49
2022/08/09 06:30:12;;;;;;;17.33;7.25;;;28.10;99.90;;;;;;5001953;28;20038;-49
2022/08/09 06:32:38;;;;;;;10.00;6.38;;;28.10;99.90;;;;;;5012216;28;20022;-49
2022/08/09 06:35:04;;;;;;;17.80;7.10;;;28.10;99.90;;;;;;5013694;28;20032;-49
2022/08/09 06:37:30;;;;;;;12.70;7.18;;;28.10;99.90;;;;;;5013387;28;20026;-49
2022/08/09 06:39:56;;;;;;;13.52;7.50;;;28.10;99.90;;;;;;5013567;28;20084;-48
2022/08/09 06:42:22;;;;;;;19.05;7.22;;;28.10;99.90;;;;;;5013696;28;20485;-48
2022/08/09 06:44:48;;;;;;;18.10;7.75;;;28.10;99.90;;;;;;5013167;28;20115;-48
2022/08/09 06:47:14;;;;;;;14.57;6.28;;;28.20;99.90;;;;;;5013420;28;20049;-48
2022/08/09 06:49:41;;;;;;;14.80;6.75;;;28.20;99.90;;;;;;5013542;28;20490;-48
2022/08/09 06:52:07;;;;;;;9.90;6.03;;;28.20;99.90;;;;;;5013630;28;20532;-48
2022/08/09 06:54:33;;;;;;;12.27;7.03;;;28.20;99.90;;;;;;5013061;28;20033;-49
2022/08/09 06:56:58;;;;;;;16.42;7.20;;;28.20;99.90;;;;;;5012929;28;20109;-48
2022/08/09 06:59:24;;;;;;;17.52;9.10;;;28.30;99.90;;;;;;5013235;28;20545;-48
2022/08/09 07:01:50;;;;;;;11.02;6.93;;;28.30;99.90;;;;;;5012927;28;20113;-48
2022/08/09 07:04:15;;;;;;;12.73;7.50;;;28.30;99.90;;;;;;5013086;28;20026;-49
2022/08/09 07:06:41;;;;;;;10.00;6.75;;;28.30;99.90;;;;;;4995706;28;20030;-48
2022/08/09 07:09:07;;;;;;;13.63;6.57;;;28.30;99.90;;;;;;4995249;28;20022;-48
2022/08/09 07:11:33;;;;;;;11.27;6.57;;;28.30;99.90;;;;;;4997913;28;20964;-49
2022/08/09 07:13:59;;;;;;;8.70;6.45;;;28.30;99.90;;;;;;5012909;28;20481;-49
2022/08/09 07:16:25;;;;;;;17.33;7.15;;;28.30;99.90;;;;;;5012615;28;20025;-48
2022/08/09 07:18:50;;;;;;;12.45;7.05;;;28.40;99.90;;;;;;5012767;28;20068;-49
2022/08/09 07:21:17;;;;;;;12.45;7.32;;;28.40;99.90;;;;;;5012798;28;20105;-49
2022/08/09 07:23:43;;;;;;;9.20;5.60;;;28.40;99.90;;;;;;5012592;28;20034;-49
2022/08/09 07:26:09;;;;;;;9.82;6.32;;;28.40;99.90;;;;;;5012529;28;20446;-49
2022/08/09 07:28:35;;;;;;;12.07;6.43;;;28.40;99.90;;;;;;5012697;28;20478;-49
2022/08/09 07:31:03;;;;;;;9.65;6.78;;;28.50;99.90;;;;;;5012301;28;20421;-49
2022/08/09 07:33:30;;;;;;;11.48;6.10;;;28.50;99.90;;;;;;5012479;28;20026;-49
2022/08/09 07:35:55;;;;;;;9.05;6.15;;;28.50;99.90;;;;;;5012546;28;20245;-49
2022/08/09 07:38:21;;;;;;;8.98;5.90;;;28.60;99.90;;;;;;5012248;28;20605;-49
2022/08/09 07:40:47;;;;;;;9.18;6.45;;;28.60;99.90;;;;;;5012397;28;20022;-49
2022/08/09 07:43:13;;;;;;;10.52;6.70;;;28.60;99.90;;;;;;5012456;28;20041;-49
2022/08/09 07:45:38;;;;;;;13.43;6.25;;;28.60;99.90;;;;;;5012292;28;20437;-49
2022/08/09 07:48:04;;;;;;;12.35;7.07;;;28.60;99.90;;;;;;4994595;28;20026;-49
2022/08/09 07:50:30;;;;;;;8.75;7.18;;;28.70;99.90;;;;;;5010852;28;20084;-49
2022/08/09 07:52:56;;;;;;;12.90;7.72;;;28.70;99.90;;;;;;4999853;28;20482;-49
2022/08/09 07:55:22;;;;;;;13.23;6.07;;;28.70;99.90;;;;;;5011955;28;20030;-48
2022/08/09 07:57:49;;;;;;;8.27;5.55;;;28.70;99.90;;;;;;5012286;28;20050;-49
2022/08/09 08:00:19;;;;;;;10.07;7.18;;;28.80;99.90;;;;;;5012122;28;20058;-49
2022/08/09 08:02:45;;;;;;;13.20;6.25;;;28.80;99.90;;;;;;5012123;28;20036;-49
2022/08/09 08:05:11;;;;;;;9.25;5.78;;;28.80;99.90;;;;;;5011875;28;20057;-48
2022/08/09 08:07:37;;;;;;;7.15;5.85;;;28.80;99.90;;;;;;5011895;28;20030;-49
2022/08/09 08:10:04;;;;;;;11.15;7.30;;;28.90;99.90;;;;;;5007981;28;20394;-48
2022/08/09 08:12:30;;;;;;;14.23;8.15;;;28.90;99.90;;;;;;5002192;28;20022;-49
2022/08/09 08:14:56;;;;;;;12.13;5.75;;;28.90;99.90;;;;;;4994134;28;20030;-49
2022/08/09 08:17:22;;;;;;;11.27;5.93;;;28.90;99.90;;;;;;5011566;28;20080;-49
2022/08/09 08:19:47;;;;;;;11.70;5.70;;;28.90;99.90;;;;;;4994339;28;20382;-49
2022/08/09 08:22:13;;;;;;;15.73;10.68;;;28.90;99.90;;;;;;5011449;28;20323;-49
2022/08/09 08:24:39;;;;;;;11.02;6.68;;;28.90;99.90;;;;;;5011425;28;20038;-49
2022/08/09 08:27:05;;;;;;;14.75;5.97;;;28.90;99.90;;;;;;5011726;28;20028;-49
2022/08/09 08:29:30;;;;;;;14.23;5.45;;;28.90;99.90;;;;;;5011531;28;20018;-49
2022/08/09 08:31:56;;;;;;;8.77;5.80;;;29.00;99.90;;;;;;5011339;28;20113;-49
2022/08/09 08:34:22;;;;;;;7.47;5.35;;;29.00;99.90;;;;;;5011482;28;20452;-49
2022/08/09 08:36:48;;;;;;;13.50;6.20;;;28.90;99.90;;;;;;5011770;28;20513;-49
2022/08/09 08:39:14;;;;;;;15.48;7.75;;;29.00;99.90;;;;;;5011367;28;20049;-48
2022/08/09 08:41:40;;;;;;;7.32;5.45;;;29.00;99.90;;;;;;5011377;28;20101;-49
2022/08/09 08:44:07;;;;;;;10.38;5.53;;;29.00;99.90;;;;;;5011137;28;20029;-49
2022/08/09 08:46:38;;;;;;;8.63;5.70;;;29.00;99.90;;;;;;5011130;28;20104;-49
2022/08/09 08:49:06;;;;;;;11.73;5.50;;;29.00;99.90;;;;;;5011114;28;20133;-49
2022/08/09 08:51:32;;;;;;;7.78;5.80;;;29.10;99.90;;;;;;5011337;28;20068;-49
2022/08/09 08:54:05;;;;;;;11.90;5.57;;;29.10;99.90;;;;;;5010997;28;20030;-49
2022/08/09 08:56:35;;;;;;;10.90;6.32;;;29.10;99.90;;;;;;5011169;28;20026;-49
2022/08/09 08:59:06;;;;;;;8.70;5.13;;;29.10;99.90;;;;;;4998071;28;20029;-49
2022/08/09 09:01:36;;;;;;;12.25;5.60;;;29.20;99.90;;;;;;5006862;28;20482;-50
2022/08/09 09:04:09;;;;;;;8.75;5.28;;;29.20;99.90;;;;;;5001949;28;20053;-48
2022/08/09 09:06:41;;;;;;;13.20;5.82;;;29.20;99.90;;;;;;5011063;28;20422;-48
2022/08/09 09:09:07;;;;;;;12.23;6.10;;;29.30;99.90;;;;;;5010944;28;20080;-49
2022/08/09 09:11:34;;;;;;;10.87;5.17;;;29.30;99.90;;;;;;4997287;28;20026;-49
2022/08/09 09:14:08;;;;;;;9.43;4.72;;;29.30;99.90;;;;;;5011092;28;20100;-49
2022/08/09 09:16:34;;;;;;;11.90;5.25;;;29.30;99.90;;;;;;4996993;28;20038;-49
2022/08/09 09:19:02;;;;;;;7.75;5.43;;;29.40;99.90;;;;;;5006141;28;20021;-49
2022/08/09 09:21:28;;;;;;;10.05;5.35;;;29.40;99.90;;;;;;4985060;28;20489;-49
2022/08/09 09:23:53;;;;;;;11.27;5.38;;;29.40;99.90;;;;;;5010500;28;20072;-49
2022/08/09 09:26:22;;;;;;;9.93;5.18;;;29.40;99.90;;;;;;5010981;28;20109;-49
2022/08/09 09:28:49;;;;;;;6.50;4.65;;;29.40;99.90;;;;;;5011112;28;20022;-49
2022/08/09 09:31:17;;;;;;;8.80;4.60;;;29.40;99.90;;;;;;5011094;28;20037;-49
2022/08/09 09:33:43;;;;;;;7.35;4.38;;;29.40;99.90;;;;;;5010823;28;20030;-49
2022/08/09 09:36:15;;;;;;;11.23;5.25;;;29.50;99.90;;;;;;5013783;28;20025;-49
2022/08/09 09:38:43;;;;;;;7.70;4.53;;;29.50;99.90;;;;;;5014569;28;20065;-49
2022/08/09 09:41:09;;;;;;;;;;;29.60;99.90;;;;;;5015039;28;20030;-49
2022/08/09 09:43:35;;;;;;;12.27;5.50;;;29.60;99.90;;;;;;5014403;28;20011;-49
2022/08/09 09:46:01;;;;;;;8.55;4.57;;;29.70;99.90;;;;;;4996863;28;20273;-49
2022/08/09 09:48:28;;;;;;;9.00;4.82;;;29.70;99.90;;;;;;5014381;28;20030;-49
2022/08/09 09:50:55;;;;;;;7.57;4.65;;;29.60;99.90;;;;;;5014470;28;20474;-49
2022/08/09 09:53:26;;;;;;;11.70;4.90;;;29.70;99.90;;;;;;5014318;28;20030;-49
2022/08/09 09:55:54;;;;;;;11.25;4.72;;;29.60;99.90;;;;;;5014312;28;20405;-49
2022/08/09 09:58:20;;;;;;;10.00;4.95;;;29.70;99.90;;;;;;4996689;28;20058;-49
2022/08/09 10:00:55;;;;;;;10.88;5.22;;;29.80;99.90;;;;;;5013892;28;20112;-49
2022/08/09 10:03:42;;;;;;;8.80;4.53;;;29.80;99.90;;;;;;5014339;28;20069;-49
2022/08/09 10:06:08;;;;;;;7.22;4.22;;;29.80;99.90;;;;;;5013860;28;20474;-49
2022/08/09 10:08:34;;;;;;;9.30;5.57;;;29.80;99.90;;;;;;4996125;28;20022;-49
2022/08/09 10:11:22;;;;;;;8.77;4.78;;;29.80;99.90;;;;;;5002753;28;20359;-49
2022/08/09 10:13:49;;;;;;;11.88;5.13;;;29.90;99.90;;;;;;5000422;28;20025;-49
2022/08/09 10:16:25;;;;;;;8.18;4.45;;;29.90;99.90;;;;;;5013754;28;20030;-49
2022/08/09 10:18:52;;;;;;;8.73;5.45;;;29.90;99.90;;;;;;5013973;28;20075;-49
2022/08/09 10:21:18;;;;;;;;;;;30.00;99.90;;;;;;5014106;28;20144;-49
2022/08/09 10:23:45;;;;;;;6.57;4.47;;;30.00;99.90;;;;;;5013049;28;19925;-49
2022/08/09 10:26:13;;;;;;;11.93;5.18;;;30.00;99.90;;;;;;5013628;28;20370;-49
2022/08/09 10:28:39;;;;;;;;;;;30.00;99.90;;;;;;5014306;28;20487;-49
2022/08/09 10:31:07;;;;;;;12.77;5.30;;;30.10;99.90;;;;;;5013467;28;20411;-49
2022/08/09 10:33:34;;;;;;;9.50;5.20;;;30.10;99.90;;;;;;5013606;28;20383;-49
2022/08/09 10:36:01;;;;;;;11.80;5.43;;;30.10;99.90;;;;;;5013705;28;20026;-49
2022/08/09 10:38:27;;;;;;;10.70;4.60;;;30.10;99.90;;;;;;5013402;28;20048;-48
2022/08/09 10:40:53;;;;;;;10.50;6.15;;;30.10;99.90;;;;;;5013663;28;20030;-49
2022/08/09 10:43:19;;;;;;;12.98;5.78;;;30.10;99.90;;;;;;5013323;28;20532;-49
2022/08/09 10:45:45;;;;;;;11.98;5.43;;;30.00;99.90;;;;;;5012881;28;20026;-48
2022/08/09 10:48:17;;;;;;;8.73;5.03;;;30.00;99.90;;;;;;5012942;28;20386;-49
2022/08/09 10:54:04;;;;;;;10.57;6.03;;;30.00;99.90;;;;;;5013155;28;20068;-49
2022/08/09 10:56:35;;;;;;;11.13;5.20;;;29.90;99.90;;;;;;4986354;28;20100;-49
2022/08/09 10:59:20;;;;;;;13.57;6.32;;;29.90;99.90;;;;;;5013215;28;20101;-49
2022/08/09 11:01:50;;;;;;;16.33;5.70;;;29.90;99.90;;;;;;5012733;28;20498;-48
2022/08/09 11:04:22;;;;;;;8.05;5.28;;;29.90;99.90;;;;;;5012887;28;20118;-49
2022/08/09 11:06:57;;;;;;;11.02;5.70;;;30.00;99.90;;;;;;4997326;28;20502;-49
2022/08/09 11:09:42;;;;;;;12.05;5.20;;;30.00;99.90;;;;;;5012934;28;20033;-49
2022/08/09 11:12:15;;;;;;;6.40;4.93;;;30.00;99.90;;;;;;4983044;28;20045;-49
2022/08/09 11:14:55;;;;;;;9.02;5.30;;;30.00;99.90;;;;;;5012933;28;20036;-48
2022/08/09 11:17:21;;;;;;;8.13;4.45;;;30.00;99.90;;;;;;5012627;28;20021;-49
2022/08/09 11:19:55;;;;;;;10.00;6.03;;;30.00;99.90;;;;;;5012740;28;20021;-49
2022/08/09 11:22:45;;;;;;;8.23;5.13;;;30.00;99.90;;;;;;4995091;28;20373;-50
2022/08/09 11:25:15;;;;;;;12.25;5.65;;;30.00;99.90;;;;;;5012457;28;20033;-49
2022/08/09 11:27:52;;;;;;;13.02;5.35;;;30.10;99.90;;;;;;5012543;28;20022;-49
2022/08/09 11:30:21;;;;;;;10.77;5.38;;;30.10;99.90;;;;;;5012625;28;20477;-49
2022/08/09 11:33:20;;;;;;;14.23;5.70;;;30.10;99.90;;;;;;5012455;28;20037;-49
2022/08/09 11:35:57;;;;;;;7.55;4.75;;;30.20;99.90;;;;;;5012315;28;20067;-49
2022/08/09 11:38:33;;;;;;;10.05;6.28;;;30.20;99.90;;;;;;5011988;28;20022;-49
2022/08/09 11:41:28;;;;;;;11.88;5.35;;;30.30;99.90;;;;;;4994834;28;20034;-49
2022/08/09 11:43:55;;;;;;;7.45;5.13;;;30.30;99.90;;;;;;5005126;28;20041;-49
2022/08/09 11:46:21;;;;;;;9.00;5.07;;;30.40;99.90;;;;;;5012154;28;20038;-49
2022/08/09 11:48:51;;;;;;;7.63;4.95;;;30.40;99.90;;;;;;4994426;28;20056;-49
2022/08/09 11:51:24;;;;;;;11.32;5.53;;;30.40;99.90;;;;;;5012167;28;20434;-49
2022/08/09 11:54:25;;;;;;;7.75;5.53;;;30.50;99.90;;;;;;5011936;28;20383;-49
2022/08/09 11:56:51;;;;;;;8.38;4.63;;;30.50;99.90;;;;;;4931927;29;20447;-49
2022/08/09 11:59:25;;;;;;;9.25;5.22;;;30.60;99.90;;;;;;4995226;28;20044;-49
2022/08/09 12:01:51;;;;;;;9.05;5.22;;;30.60;99.90;;;;;;4994221;28;20791;-49
2022/08/09 12:04:17;;;;;;;9.00;5.40;;;30.70;99.90;;;;;;5011795;28;20042;-49
2022/08/09 12:06:51;;;;;;;8.68;5.32;;;30.70;99.90;;;;;;5011745;28;20080;-49
2022/08/09 12:09:24;;;;;;;9.40;5.63;;;30.70;99.90;;;;;;5011661;28;20025;-49
2022/08/09 12:12:01;;;;;;;9.85;5.35;;;30.70;99.90;;;;;;4996708;28;20080;-50
2022/08/09 12:14:32;;;;;;;12.18;5.07;;;30.70;99.90;;;;;;5012011;28;20037;-49
2022/08/09 12:16:58;;;;;;;9.85;5.40;;;30.70;99.90;;;;;;5011757;28;20061;-49
2022/08/09 12:19:29;;;;;;;12.93;5.10;;;30.70;99.90;;;;;;5011724;28;20040;-49
2022/08/09 12:21:59;;;;;;;8.88;5.88;;;30.70;99.90;;;;;;5011633;28;20062;-50
2022/08/09 12:24:25;;;;;;;12.63;6.03;;;30.80;99.90;;;;;;5011147;28;20040;-49
2022/08/09 12:26:55;;;;;;;8.82;5.68;;;30.80;99.90;;;;;;5011625;28;20018;-49
2022/08/09 12:29:23;;;;;;;7.25;5.50;;;30.80;99.90;;;;;;5011453;28;20026;-49
2022/08/09 12:31:58;;;;;;;8.02;5.72;;;30.80;99.90;;;;;;5011414;28;20025;-49
2022/08/09 12:34:35;;;;;;;9.65;7.22;;;30.80;99.90;;;;;;5011547;28;20105;-49
2022/08/09 12:37:02;;;;;;;8.73;5.85;;;30.80;99.90;;;;;;4985839;28;20123;-50
2022/08/09 12:39:28;;;;;;;15.60;6.57;;;30.90;99.90;;;;;;5011422;28;20062;-49
2022/08/09 12:42:03;;;;;;;11.57;5.30;;;30.90;99.90;;;;;;5011179;28;20432;-50
2022/08/09 12:44:29;;;;;;;13.23;5.90;;;30.90;99.90;;;;;;5011444;28;20032;-49
2022/08/09 12:46:55;;;;;;;13.98;5.90;;;30.90;99.90;;;;;;5011050;28;20108;-49
2022/08/09 12:49:22;;;;;;;12.32;5.68;;;31.00;99.90;;;;;;5007040;28;20026;-49
2022/08/09 12:51:57;;;;;;;9.02;6.30;;;31.00;99.90;;;;;;5002083;28;20256;-50
2022/08/09 12:54:23;;;;;;;9.85;5.05;;;31.00;99.90;;;;;;5011052;28;20022;-50
2022/08/09 12:56:50;;;;;;;11.05;5.85;;;31.10;99.90;;;;;;5011282;28;20415;-50